createdAt,value
2018-09-22T00:03:21.811Z,12.50
2018-09-22T00:08:24.879Z,12.50
2018-09-22T00:13:27.804Z,12.50
2018-09-22T00:18:30.789Z,12.50
2018-09-22T00:23:33.754Z,12.60
2018-09-22T00:28:37.162Z,12.70
2018-09-22T00:33:40.136Z,12.60
2018-09-22T00:38:43.160Z,12.70
2018-09-22T00:43:46.107Z,12.70
2018-09-22T00:48:49.093Z,12.70
2018-09-22T00:53:52.118Z,12.70
2018-09-22T00:58:55.100Z,12.60
2018-09-22T01:03:58.232Z,12.50
2018-09-22T01:09:03.973Z,12.40
2018-09-22T01:14:07.980Z,12.40
2018-09-22T01:19:11.655Z,12.40
2018-09-22T01:24:14.670Z,12.40
2018-09-22T01:29:17.671Z,12.50
2018-09-22T01:34:20.643Z,12.50
2018-09-22T01:39:25.052Z,12.40
2018-09-22T01:44:28.084Z,12.40
2018-09-22T01:49:31.046Z,12.30
2018-09-22T01:54:34.059Z,12.20
2018-09-22T01:59:37.073Z,12.20
2018-09-22T02:04:40.079Z,12.20
2018-09-22T02:09:43.055Z,12.20
2018-09-22T02:14:45.999Z,12.20
2018-09-22T02:19:48.956Z,12.10
2018-09-22T02:24:51.934Z,12.10
2018-09-22T02:29:54.995Z,12.00
2018-09-22T02:34:57.931Z,11.90
2018-09-22T02:40:03.671Z,11.90
2018-09-22T02:45:07.215Z,11.70
2018-09-22T02:50:10.244Z,11.70
2018-09-22T02:55:13.280Z,11.60
2018-09-22T03:00:16.924Z,11.50
2018-09-22T03:05:20.080Z,11.40
2018-09-22T03:10:23.048Z,11.40
2018-09-22T03:15:26.149Z,11.40
2018-09-22T03:20:29.151Z,11.40
2018-09-22T03:25:32.112Z,11.40
2018-09-22T03:30:35.129Z,11.30
2018-09-22T03:35:38.088Z,11.20
2018-09-22T03:40:41.628Z,11.10
2018-09-22T03:45:44.583Z,11.10
2018-09-22T03:50:47.612Z,11.00
2018-09-22T03:55:50.578Z,10.90
2018-09-22T04:00:53.560Z,10.80
2018-09-22T04:05:56.515Z,10.90
2018-09-22T04:10:59.480Z,10.90
2018-09-22T04:16:02.732Z,10.90
2018-09-22T04:21:05.710Z,11.00
2018-09-22T04:26:08.683Z,10.90
2018-09-22T04:31:11.695Z,10.90
2018-09-22T04:36:15.001Z,10.90
2018-09-22T04:41:18.091Z,10.80
2018-09-22T04:46:21.091Z,10.80
2018-09-22T04:51:24.844Z,10.80
2018-09-22T04:56:28.048Z,10.80
2018-09-22T05:01:31.121Z,10.80
2018-09-22T05:06:34.108Z,10.80
2018-09-22T05:11:37.155Z,10.70
2018-09-22T05:16:40.146Z,10.70
2018-09-22T05:21:43.095Z,10.70
2018-09-22T05:26:46.115Z,10.80
2018-09-22T05:31:49.121Z,10.70
2018-09-22T05:36:52.100Z,10.80
2018-09-22T05:41:55.102Z,10.90
2018-09-22T05:46:58.094Z,10.60
2018-09-22T05:52:03.625Z,10.30
2018-09-22T05:57:06.665Z,10.10
2018-09-22T06:02:09.678Z,10.30
2018-09-22T06:07:12.644Z,10.50
2018-09-22T06:12:15.616Z,10.70
2018-09-22T06:17:18.577Z,11.10
2018-09-22T06:22:21.599Z,11.30
2018-09-22T06:27:24.791Z,11.70
2018-09-22T06:32:28.023Z,12.00
2018-09-22T06:37:31.041Z,12.50
2018-09-22T06:42:34.017Z,13.00
2018-09-22T06:47:37.340Z,13.20
2018-09-22T06:52:40.348Z,13.80
2018-09-22T06:57:43.335Z,14.60
2018-09-22T07:02:46.537Z,14.40
2018-09-22T07:07:49.860Z,14.20
2018-09-22T07:12:53.014Z,14.10
2018-09-22T07:17:56.283Z,14.00
2018-09-22T07:23:04.882Z,14.20
2018-09-22T07:28:07.864Z,14.10
2018-09-22T07:33:10.844Z,14.20
2018-09-22T07:38:13.864Z,14.30
2018-09-22T07:43:16.868Z,14.30
2018-09-22T07:48:20.004Z,14.40
2018-09-22T07:53:23.070Z,14.70
2018-09-22T07:58:26.071Z,15.30
2018-09-22T08:03:29.105Z,15.40
2018-09-22T08:08:32.042Z,15.70
2018-09-22T08:13:35.212Z,16.00
2018-09-22T08:18:38.148Z,16.10
2018-09-22T08:23:41.036Z,16.00
2018-09-22T08:28:44.542Z,16.20
2018-09-22T08:33:47.445Z,16.60
2018-09-22T08:38:50.380Z,17.00
2018-09-22T08:43:53.347Z,16.90
2018-09-22T08:48:56.291Z,16.30
2018-09-22T08:53:59.269Z,16.60
2018-09-22T08:59:05.273Z,16.90
2018-09-22T09:04:08.203Z,17.10
2018-09-22T09:09:11.129Z,16.90
2018-09-22T09:14:14.048Z,17.00
2018-09-22T09:19:16.865Z,16.90
2018-09-22T09:24:19.717Z,17.00
2018-09-22T09:29:22.579Z,17.30
2018-09-22T09:34:25.525Z,17.50
2018-09-22T09:39:28.473Z,17.20
2018-09-22T09:44:31.393Z,17.50
2018-09-22T09:49:34.236Z,18.10
2018-09-22T09:54:37.235Z,18.20
2018-09-22T09:59:40.092Z,18.00
2018-09-22T10:04:43.009Z,17.90
2018-09-22T10:09:46.050Z,18.20
2018-09-22T10:14:49.032Z,18.10
2018-09-22T10:19:51.927Z,18.30
2018-09-22T10:24:54.824Z,18.80
2018-09-22T10:29:57.730Z,19.10
2018-09-22T10:35:03.569Z,19.00
2018-09-22T10:40:06.771Z,19.40
2018-09-22T10:45:09.697Z,19.30
2018-09-22T10:50:12.669Z,19.40
2018-09-22T10:55:15.550Z,19.50
2018-09-22T11:00:18.490Z,19.60
2018-09-22T11:05:21.399Z,19.40
2018-09-22T11:10:24.574Z,19.00
2018-09-22T11:15:27.466Z,19.30
2018-09-22T11:20:30.355Z,19.70
2018-09-22T11:25:33.276Z,19.80
2018-09-22T11:30:36.193Z,19.60
2018-09-22T11:35:39.115Z,19.60
2018-09-22T11:40:42.134Z,19.40
2018-09-22T11:45:45.227Z,19.30
2018-09-22T11:50:48.143Z,19.70
2018-09-22T11:55:51.120Z,19.70
2018-09-22T12:00:54.058Z,19.70
2018-09-22T12:05:57.029Z,19.60
2018-09-22T12:11:00.012Z,19.70
2018-09-22T12:16:05.226Z,20.10
2018-09-22T12:21:08.133Z,20.50
2018-09-22T12:26:11.046Z,20.50
2018-09-22T12:31:13.986Z,20.40
2018-09-22T12:36:17.061Z,20.00
2018-09-22T12:41:20.049Z,20.00
2018-09-22T12:46:22.982Z,20.30
2018-09-22T12:51:25.853Z,20.00
2018-09-22T12:56:28.954Z,19.70
2018-09-22T13:01:31.906Z,19.80
2018-09-22T13:06:34.921Z,19.90
2018-09-22T13:11:37.861Z,19.90
2018-09-22T13:16:40.717Z,20.00
2018-09-22T13:21:43.631Z,19.80
2018-09-22T13:26:46.566Z,19.50
2018-09-22T13:31:49.462Z,19.70
2018-09-22T13:36:52.366Z,19.70
2018-09-22T13:41:55.217Z,19.70
2018-09-22T13:46:58.172Z,19.40
2018-09-22T13:52:03.629Z,19.40
2018-09-22T13:57:06.617Z,19.50
2018-09-22T14:02:09.668Z,19.70
2018-09-22T14:07:12.637Z,19.70
2018-09-22T14:12:15.517Z,19.60
2018-09-22T14:17:18.466Z,19.50
2018-09-22T14:22:21.353Z,19.40
2018-09-22T14:27:24.314Z,19.30
2018-09-22T14:32:27.280Z,19.60
2018-09-22T14:37:30.253Z,20.10
2018-09-22T14:42:33.181Z,19.70
2018-09-22T14:47:36.212Z,19.70
2018-09-22T14:52:39.138Z,19.70
2018-09-22T14:57:42.269Z,19.30
2018-09-22T15:02:45.207Z,19.10
2018-09-22T15:07:48.133Z,19.00
2018-09-22T15:12:51.281Z,18.70
2018-09-22T15:17:54.256Z,18.70
2018-09-22T15:22:57.220Z,18.50
2018-09-22T15:28:00.189Z,18.50
2018-09-22T15:33:05.121Z,18.40
2018-09-22T15:38:08.081Z,18.40
2018-09-22T15:43:10.983Z,18.30
2018-09-22T15:48:14.292Z,17.90
2018-09-22T15:53:17.197Z,17.30
2018-09-22T15:58:20.641Z,16.90
2018-09-22T16:03:23.695Z,16.90
2018-09-22T16:08:26.930Z,16.90
2018-09-22T16:18:38.968Z,16.80
2018-09-22T16:23:41.900Z,16.40
2018-09-22T16:28:45.047Z,16.20
2018-09-22T16:33:47.991Z,16.00
2018-09-22T16:38:50.938Z,15.90
2018-09-22T16:43:53.897Z,16.00
2018-09-22T16:48:57.091Z,16.00
2018-09-22T16:54:00.042Z,16.00
2018-09-22T16:59:04.001Z,16.00
2018-09-22T17:04:07.132Z,16.00
2018-09-22T17:09:09.998Z,15.80
2018-09-22T17:14:13.029Z,15.60
2018-09-22T17:19:16.027Z,15.30
2018-09-22T17:24:19.069Z,15.20
2018-09-22T17:29:21.980Z,15.00
2018-09-22T17:34:25.444Z,14.90
2018-09-22T17:39:28.403Z,14.70
2018-09-22T17:44:31.361Z,14.40
2018-09-22T17:49:34.329Z,14.20
2018-09-22T17:54:37.188Z,14.10
2018-09-22T17:59:41.060Z,14.00
2018-09-22T18:04:43.942Z,13.90
2018-09-22T18:09:46.895Z,13.90
2018-09-22T18:14:50.033Z,13.80
2018-09-22T18:19:52.984Z,13.80
2018-09-22T18:24:55.947Z,13.70
2018-09-22T18:29:58.916Z,13.70
2018-09-22T18:35:04.189Z,13.70
2018-09-22T18:40:07.168Z,13.60
2018-09-22T18:45:10.250Z,13.60
2018-09-22T18:50:13.221Z,13.60
2018-09-22T18:55:16.207Z,13.50
2018-09-22T19:00:19.168Z,13.60
2018-09-22T19:05:22.247Z,13.60
2018-09-22T19:10:25.195Z,13.60
2018-09-22T19:15:45.003Z,13.60
2018-09-22T19:22:57.513Z,13.50
2018-09-22T19:28:06.799Z,13.60
2018-09-22T19:33:15.980Z,13.70
2018-09-22T19:38:25.735Z,13.60
2018-09-22T19:43:35.979Z,13.60
2018-09-22T19:48:43.160Z,13.50
2018-09-22T19:53:46.985Z,13.50
2018-09-22T19:58:50.014Z,13.50
2018-09-22T20:03:53.021Z,13.50
2018-09-22T20:08:56.064Z,13.50
2018-09-22T20:13:59.221Z,13.50
2018-09-22T20:19:02.931Z,13.50
2018-09-22T20:24:06.230Z,13.50
2018-09-22T20:29:09.379Z,13.50
2018-09-22T20:34:12.387Z,13.50
2018-09-22T20:39:15.797Z,13.50
2018-09-22T20:44:18.904Z,13.50
2018-09-22T20:49:22.160Z,13.50
2018-09-22T20:54:25.198Z,13.50
2018-09-22T20:59:28.337Z,13.40
2018-09-22T21:04:31.416Z,13.40
2018-09-22T21:09:34.482Z,13.30
2018-09-22T21:14:37.532Z,13.30
2018-09-22T21:19:40.686Z,13.20
2018-09-22T21:24:44.036Z,13.00
2018-09-22T21:29:47.585Z,12.90
2018-09-22T21:34:50.618Z,12.90
2018-09-22T21:39:53.652Z,13.00
2018-09-22T21:44:56.735Z,12.90
2018-09-22T21:49:59.736Z,12.90
2018-09-22T21:55:05.457Z,12.80
2018-09-22T22:00:08.571Z,12.80
2018-09-22T22:05:11.659Z,12.90
2018-09-22T22:10:14.679Z,12.90
2018-09-22T22:15:17.709Z,12.90
2018-09-22T22:20:20.744Z,12.80
2018-09-22T22:25:23.771Z,12.70
2018-09-22T22:30:26.904Z,12.60
2018-09-22T22:35:29.942Z,12.50
2018-09-22T22:40:33.580Z,12.50
2018-09-22T22:45:36.792Z,12.60
2018-09-22T22:50:39.764Z,12.60
2018-09-22T22:55:42.731Z,12.70
2018-09-22T23:00:45.796Z,12.70
2018-09-22T23:05:48.856Z,12.70
2018-09-22T23:10:51.845Z,12.80
2018-09-22T23:15:55.103Z,12.80
2018-09-22T23:20:58.448Z,12.80
2018-09-22T23:26:04.175Z,12.90
2018-09-22T23:31:07.255Z,12.90
2018-09-22T23:36:10.267Z,12.70
2018-09-22T23:41:13.341Z,12.50
2018-09-22T23:46:16.327Z,12.40
2018-09-22T23:51:19.507Z,12.50
2018-09-22T23:56:22.508Z,12.40
